sensor_id;sensor_type;location;lat;lon;timestamp;P1;durP1;ratioP1;P2;durP2;ratioP2
3943;SDS011;1986;52.546;13.428;2024-02-26T00:01:37;6.63;;;6.63;;
3943;SDS011;1986;52.546;13.428;2024-02-26T00:04:04;6.60;;;6.60;;
3943;SDS011;1986;52.546;13.428;2024-02-26T00:06:31;6.40;;;6.40;;
3943;SDS011;1986;52.546;13.428;2024-02-26T00:08:59;6.83;;;6.83;;
3943;SDS011;1986;52.546;13.428;2024-02-26T00:11:27;6.07;;;6.07;;
3943;SDS011;1986;52.546;13.428;2024-02-26T00:13:54;6.23;;;6.23;;
3943;SDS011;1986;52.546;13.428;2024-02-26T00:16:22;5.10;;;5.10;;
3943;SDS011;1986;52.546;13.428;2024-02-26T00:18:52;5.27;;;5.27;;
3943;SDS011;1986;52.546;13.428;2024-02-26T00:21:19;5.60;;;5.60;;
3943;SDS011;1986;52.546;13.428;2024-02-26T00:23:46;5.40;;;5.40;;
3943;SDS011;1986;52.546;13.428;2024-02-26T00:26:14;4.70;;;4.70;;
3943;SDS011;1986;52.546;13.428;2024-02-26T00:28:41;4.17;;;4.17;;
3943;SDS011;1986;52.546;13.428;2024-02-26T00:31:09;4.30;;;4.30;;
3943;SDS011;1986;52.546;13.428;2024-02-26T00:33:38;3.73;;;3.73;;
3943;SDS011;1986;52.546;13.428;2024-02-26T00:36:05;3.70;;;3.70;;
3943;SDS011;1986;52.546;13.428;2024-02-26T00:38:32;3.87;;;3.87;;
3943;SDS011;1986;52.546;13.428;2024-02-26T00:40:59;3.60;;;3.60;;
3943;SDS011;1986;52.546;13.428;2024-02-26T00:43:28;3.60;;;3.60;;
3943;SDS011;1986;52.546;13.428;2024-02-26T00:45:58;3.07;;;3.07;;
3943;SDS011;1986;52.546;13.428;2024-02-26T00:48:34;2.90;;;2.90;;
3943;SDS011;1986;52.546;13.428;2024-02-26T00:51:03;3.37;;;3.37;;
3943;SDS011;1986;52.546;13.428;2024-02-26T00:53:30;2.77;;;2.77;;
3943;SDS011;1986;52.546;13.428;2024-02-26T00:55:58;2.70;;;2.70;;
3943;SDS011;1986;52.546;13.428;2024-02-26T00:58:25;2.70;;;2.70;;
3943;SDS011;1986;52.546;13.428;2024-02-26T01:00:54;2.60;;;2.60;;
3943;SDS011;1986;52.546;13.428;2024-02-26T01:03:21;2.90;;;2.90;;
3943;SDS011;1986;52.546;13.428;2024-02-26T01:05:48;2.77;;;2.77;;
3943;SDS011;1986;52.546;13.428;2024-02-26T01:08:17;2.50;;;2.50;;
3943;SDS011;1986;52.546;13.428;2024-02-26T01:10:46;2.47;;;2.47;;
3943;SDS011;1986;52.546;13.428;2024-02-26T01:13:13;2.07;;;2.07;;
3943;SDS011;1986;52.546;13.428;2024-02-26T01:15:40;1.97;;;1.97;;
3943;SDS011;1986;52.546;13.428;2024-02-26T01:18:08;2.10;;;2.10;;
3943;SDS011;1986;52.546;13.428;2024-02-26T01:20:36;1.70;;;1.70;;
3943;SDS011;1986;52.546;13.428;2024-02-26T01:23:03;1.80;;;1.80;;
3943;SDS011;1986;52.546;13.428;2024-02-26T01:25:34;1.70;;;1.70;;
3943;SDS011;1986;52.546;13.428;2024-02-26T01:28:01;1.60;;;1.60;;
3943;SDS011;1986;52.546;13.428;2024-02-26T01:30:28;1.70;;;1.70;;
3943;SDS011;1986;52.546;13.428;2024-02-26T01:32:55;1.50;;;1.50;;
3943;SDS011;1986;52.546;13.428;2024-02-26T01:35:23;1.40;;;1.40;;
3943;SDS011;1986;52.546;13.428;2024-02-26T01:37:50;1.50;;;1.50;;
3943;SDS011;1986;52.546;13.428;2024-02-26T01:40:17;1.63;;;1.63;;
3943;SDS011;1986;52.546;13.428;2024-02-26T01:42:46;1.50;;;1.50;;
3943;SDS011;1986;52.546;13.428;2024-02-26T01:45:14;1.40;;;1.40;;
3943;SDS011;1986;52.546;13.428;2024-02-26T01:47:47;1.27;;;1.27;;
3943;SDS011;1986;52.546;13.428;2024-02-26T01:50:16;1.13;;;1.13;;
3943;SDS011;1986;52.546;13.428;2024-02-26T01:52:43;1.17;;;1.17;;
3943;SDS011;1986;52.546;13.428;2024-02-26T01:55:11;1.13;;;1.13;;
3943;SDS011;1986;52.546;13.428;2024-02-26T01:57:40;1.00;;;1.00;;
3943;SDS011;1986;52.546;13.428;2024-02-26T02:00:11;1.00;;;1.00;;
3943;SDS011;1986;52.546;13.428;2024-02-26T02:02:41;1.30;;;1.30;;
3943;SDS011;1986;52.546;13.428;2024-02-26T02:05:12;1.10;;;1.10;;
3943;SDS011;1986;52.546;13.428;2024-02-26T02:07:40;1.10;;;1.10;;
3943;SDS011;1986;52.546;13.428;2024-02-26T02:10:08;1.00;;;1.00;;
3943;SDS011;1986;52.546;13.428;2024-02-26T02:12:38;1.20;;;1.20;;
3943;SDS011;1986;52.546;13.428;2024-02-26T02:15:06;1.20;;;1.20;;
3943;SDS011;1986;52.546;13.428;2024-02-26T02:17:38;1.07;;;1.07;;
3943;SDS011;1986;52.546;13.428;2024-02-26T02:20:07;1.00;;;1.00;;
3943;SDS011;1986;52.546;13.428;2024-02-26T02:22:37;0.90;;;0.90;;
3943;SDS011;1986;52.546;13.428;2024-02-26T02:25:04;0.80;;;0.80;;
3943;SDS011;1986;52.546;13.428;2024-02-26T02:27:32;0.80;;;0.80;;
3943;SDS011;1986;52.546;13.428;2024-02-26T02:30:01;1.00;;;1.00;;
3943;SDS011;1986;52.546;13.428;2024-02-26T02:32:29;0.80;;;0.80;;
3943;SDS011;1986;52.546;13.428;2024-02-26T02:34:57;0.80;;;0.80;;
3943;SDS011;1986;52.546;13.428;2024-02-26T02:37:24;0.70;;;0.70;;
3943;SDS011;1986;52.546;13.428;2024-02-26T02:39:53;0.80;;;0.80;;
3943;SDS011;1986;52.546;13.428;2024-02-26T02:42:20;0.80;;;0.80;;
3943;SDS011;1986;52.546;13.428;2024-02-26T02:44:47;0.70;;;0.70;;
3943;SDS011;1986;52.546;13.428;2024-02-26T02:47:14;0.70;;;0.70;;
3943;SDS011;1986;52.546;13.428;2024-02-26T02:49:41;0.80;;;0.80;;
3943;SDS011;1986;52.546;13.428;2024-02-26T02:52:08;0.70;;;0.70;;
3943;SDS011;1986;52.546;13.428;2024-02-26T02:54:36;0.70;;;0.70;;
3943;SDS011;1986;52.546;13.428;2024-02-26T02:57:06;0.60;;;0.60;;
3943;SDS011;1986;52.546;13.428;2024-02-26T02:59:33;0.50;;;0.50;;
3943;SDS011;1986;52.546;13.428;2024-02-26T03:02:01;0.60;;;0.60;;
3943;SDS011;1986;52.546;13.428;2024-02-26T03:04:28;0.60;;;0.60;;
3943;SDS011;1986;52.546;13.428;2024-02-26T03:06:55;0.60;;;0.60;;
3943;SDS011;1986;52.546;13.428;2024-02-26T03:09:22;0.50;;;0.50;;
3943;SDS011;1986;52.546;13.428;2024-02-26T03:11:49;0.50;;;0.50;;
3943;SDS011;1986;52.546;13.428;2024-02-26T03:14:18;0.60;;;0.60;;
3943;SDS011;1986;52.546;13.428;2024-02-26T03:16:44;0.50;;;0.50;;
3943;SDS011;1986;52.546;13.428;2024-02-26T03:19:14;0.60;;;0.60;;
3943;SDS011;1986;52.546;13.428;2024-02-26T03:21:41;0.60;;;0.60;;
3943;SDS011;1986;52.546;13.428;2024-02-26T03:24:08;0.50;;;0.50;;
3943;SDS011;1986;52.546;13.428;2024-02-26T03:26:35;0.60;;;0.60;;
3943;SDS011;1986;52.546;13.428;2024-02-26T03:29:02;0.70;;;0.70;;
3943;SDS011;1986;52.546;13.428;2024-02-26T03:31:30;0.50;;;0.50;;
3943;SDS011;1986;52.546;13.428;2024-02-26T03:33:57;0.53;;;0.53;;
3943;SDS011;1986;52.546;13.428;2024-02-26T03:36:29;0.50;;;0.50;;
3943;SDS011;1986;52.546;13.428;2024-02-26T03:38:55;0.53;;;0.53;;
3943;SDS011;1986;52.546;13.428;2024-02-26T03:41:25;0.57;;;0.57;;
3943;SDS011;1986;52.546;13.428;2024-02-26T03:43:52;0.50;;;0.50;;
3943;SDS011;1986;52.546;13.428;2024-02-26T03:46:20;0.50;;;0.50;;
3943;SDS011;1986;52.546;13.428;2024-02-26T03:48:48;0.40;;;0.40;;
3943;SDS011;1986;52.546;13.428;2024-02-26T03:51:15;0.50;;;0.50;;
3943;SDS011;1986;52.546;13.428;2024-02-26T03:53:42;0.40;;;0.40;;
3943;SDS011;1986;52.546;13.428;2024-02-26T03:56:11;0.40;;;0.40;;
3943;SDS011;1986;52.546;13.428;2024-02-26T03:58:38;0.30;;;0.30;;
3943;SDS011;1986;52.546;13.428;2024-02-26T04:01:06;0.30;;;0.30;;
3943;SDS011;1986;52.546;13.428;2024-02-26T04:03:33;0.40;;;0.40;;
3943;SDS011;1986;52.546;13.428;2024-02-26T04:06:02;0.40;;;0.40;;
3943;SDS011;1986;52.546;13.428;2024-02-26T04:08:30;0.30;;;0.30;;
3943;SDS011;1986;52.546;13.428;2024-02-26T04:10:57;0.40;;;0.40;;
3943;SDS011;1986;52.546;13.428;2024-02-26T04:13:24;0.40;;;0.40;;
3943;SDS011;1986;52.546;13.428;2024-02-26T04:15:51;0.40;;;0.40;;
3943;SDS011;1986;52.546;13.428;2024-02-26T04:18:18;0.30;;;0.30;;
3943;SDS011;1986;52.546;13.428;2024-02-26T04:20:45;0.30;;;0.30;;
3943;SDS011;1986;52.546;13.428;2024-02-26T04:23:13;0.30;;;0.30;;
3943;SDS011;1986;52.546;13.428;2024-02-26T04:25:40;0.30;;;0.30;;
3943;SDS011;1986;52.546;13.428;2024-02-26T04:28:08;0.30;;;0.30;;
3943;SDS011;1986;52.546;13.428;2024-02-26T04:30:35;0.40;;;0.40;;
3943;SDS011;1986;52.546;13.428;2024-02-26T04:33:04;0.20;;;0.20;;
3943;SDS011;1986;52.546;13.428;2024-02-26T04:35:34;0.20;;;0.20;;
3943;SDS011;1986;52.546;13.428;2024-02-26T04:38:01;0.30;;;0.30;;
3943;SDS011;1986;52.546;13.428;2024-02-26T04:40:29;0.23;;;0.23;;
3943;SDS011;1986;52.546;13.428;2024-02-26T04:42:56;0.30;;;0.30;;
3943;SDS011;1986;52.546;13.428;2024-02-26T04:45:23;0.30;;;0.30;;
3943;SDS011;1986;52.546;13.428;2024-02-26T04:47:53;0.30;;;0.30;;
3943;SDS011;1986;52.546;13.428;2024-02-26T04:50:20;0.30;;;0.30;;
3943;SDS011;1986;52.546;13.428;2024-02-26T04:52:47;0.30;;;0.30;;
3943;SDS011;1986;52.546;13.428;2024-02-26T04:55:15;0.30;;;0.30;;
3943;SDS011;1986;52.546;13.428;2024-02-26T04:57:45;0.30;;;0.30;;
3943;SDS011;1986;52.546;13.428;2024-02-26T05:00:15;0.30;;;0.30;;
3943;SDS011;1986;52.546;13.428;2024-02-26T05:02:43;0.20;;;0.20;;
3943;SDS011;1986;52.546;13.428;2024-02-26T05:05:10;0.30;;;0.30;;
3943;SDS011;1986;52.546;13.428;2024-02-26T05:07:39;0.30;;;0.30;;
3943;SDS011;1986;52.546;13.428;2024-02-26T05:10:08;0.20;;;0.20;;
3943;SDS011;1986;52.546;13.428;2024-02-26T05:12:37;0.20;;;0.20;;
3943;SDS011;1986;52.546;13.428;2024-02-26T05:15:12;0.30;;;0.30;;
3943;SDS011;1986;52.546;13.428;2024-02-26T05:17:43;0.30;;;0.30;;
3943;SDS011;1986;52.546;13.428;2024-02-26T05:20:10;0.30;;;0.30;;
3943;SDS011;1986;52.546;13.428;2024-02-26T05:22:38;0.20;;;0.20;;
3943;SDS011;1986;52.546;13.428;2024-02-26T05:25:06;0.20;;;0.20;;
3943;SDS011;1986;52.546;13.428;2024-02-26T05:27:33;0.20;;;0.20;;
3943;SDS011;1986;52.546;13.428;2024-02-26T05:30:00;0.30;;;0.30;;
3943;SDS011;1986;52.546;13.428;2024-02-26T05:32:29;0.20;;;0.20;;
3943;SDS011;1986;52.546;13.428;2024-02-26T05:34:56;0.30;;;0.30;;
3943;SDS011;1986;52.546;13.428;2024-02-26T05:37:23;0.30;;;0.30;;
3943;SDS011;1986;52.546;13.428;2024-02-26T05:39:50;0.20;;;0.20;;
3943;SDS011;1986;52.546;13.428;2024-02-26T05:42:18;0.30;;;0.30;;
3943;SDS011;1986;52.546;13.428;2024-02-26T05:44:46;0.30;;;0.30;;
3943;SDS011;1986;52.546;13.428;2024-02-26T05:47:27;0.30;;;0.30;;
3943;SDS011;1986;52.546;13.428;2024-02-26T05:49:56;0.30;;;0.30;;
3943;SDS011;1986;52.546;13.428;2024-02-26T05:52:24;0.30;;;0.30;;
3943;SDS011;1986;52.546;13.428;2024-02-26T05:54:51;0.20;;;0.20;;
3943;SDS011;1986;52.546;13.428;2024-02-26T05:57:20;0.20;;;0.20;;
3943;SDS011;1986;52.546;13.428;2024-02-26T05:59:51;0.30;;;0.30;;
3943;SDS011;1986;52.546;13.428;2024-02-26T06:02:20;0.20;;;0.20;;
3943;SDS011;1986;52.546;13.428;2024-02-26T06:04:49;0.30;;;0.30;;
3943;SDS011;1986;52.546;13.428;2024-02-26T06:07:16;0.13;;;0.13;;
3943;SDS011;1986;52.546;13.428;2024-02-26T06:09:44;0.20;;;0.20;;
3943;SDS011;1986;52.546;13.428;2024-02-26T06:12:11;0.10;;;0.10;;
3943;SDS011;1986;52.546;13.428;2024-02-26T06:14:38;0.20;;;0.20;;
3943;SDS011;1986;52.546;13.428;2024-02-26T06:17:05;0.30;;;0.30;;
3943;SDS011;1986;52.546;13.428;2024-02-26T06:19:36;0.30;;;0.30;;
3943;SDS011;1986;52.546;13.428;2024-02-26T06:22:05;0.20;;;0.20;;
3943;SDS011;1986;52.546;13.428;2024-02-26T06:24:35;0.30;;;0.30;;
3943;SDS011;1986;52.546;13.428;2024-02-26T06:27:03;0.20;;;0.20;;
3943;SDS011;1986;52.546;13.428;2024-02-26T06:29:44;0.27;;;0.27;;
3943;SDS011;1986;52.546;13.428;2024-02-26T06:32:17;0.23;;;0.23;;
3943;SDS011;1986;52.546;13.428;2024-02-26T06:34:44;0.20;;;0.20;;
3943;SDS011;1986;52.546;13.428;2024-02-26T06:37:12;0.20;;;0.20;;
3943;SDS011;1986;52.546;13.428;2024-02-26T06:39:39;0.20;;;0.20;;
3943;SDS011;1986;52.546;13.428;2024-02-26T06:42:07;0.20;;;0.20;;
3943;SDS011;1986;52.546;13.428;2024-02-26T06:44:34;0.30;;;0.30;;
3943;SDS011;1986;52.546;13.428;2024-02-26T06:47:00;0.20;;;0.20;;
3943;SDS011;1986;52.546;13.428;2024-02-26T06:49:28;0.20;;;0.20;;
3943;SDS011;1986;52.546;13.428;2024-02-26T06:51:56;0.30;;;0.30;;
3943;SDS011;1986;52.546;13.428;2024-02-26T06:54:26;0.40;;;0.40;;
3943;SDS011;1986;52.546;13.428;2024-02-26T06:56:53;0.40;;;0.40;;
3943;SDS011;1986;52.546;13.428;2024-02-26T06:59:20;0.30;;;0.30;;
3943;SDS011;1986;52.546;13.428;2024-02-26T07:01:54;0.40;;;0.40;;
3943;SDS011;1986;52.546;13.428;2024-02-26T07:04:24;0.50;;;0.50;;
3943;SDS011;1986;52.546;13.428;2024-02-26T07:06:50;0.70;;;0.70;;
3943;SDS011;1986;52.546;13.428;2024-02-26T07:09:18;0.70;;;0.70;;
3943;SDS011;1986;52.546;13.428;2024-02-26T07:11:49;0.70;;;0.70;;
3943;SDS011;1986;52.546;13.428;2024-02-26T07:14:16;0.70;;;0.70;;
3943;SDS011;1986;52.546;13.428;2024-02-26T07:16:43;0.90;;;0.90;;
3943;SDS011;1986;52.546;13.428;2024-02-26T07:19:13;0.90;;;0.90;;
3943;SDS011;1986;52.546;13.428;2024-02-26T07:21:39;0.80;;;0.80;;
3943;SDS011;1986;52.546;13.428;2024-02-26T07:24:06;0.90;;;0.90;;
3943;SDS011;1986;52.546;13.428;2024-02-26T07:26:35;1.03;;;1.03;;
3943;SDS011;1986;52.546;13.428;2024-02-26T07:29:03;1.40;;;1.40;;
3943;SDS011;1986;52.546;13.428;2024-02-26T07:31:33;1.10;;;1.10;;
3943;SDS011;1986;52.546;13.428;2024-02-26T07:34:00;1.10;;;1.10;;
3943;SDS011;1986;52.546;13.428;2024-02-26T07:36:28;1.23;;;1.23;;
3943;SDS011;1986;52.546;13.428;2024-02-26T07:38:57;1.40;;;1.40;;
3943;SDS011;1986;52.546;13.428;2024-02-26T07:41:25;1.70;;;1.70;;
3943;SDS011;1986;52.546;13.428;2024-02-26T07:43:55;1.73;;;1.73;;
3943;SDS011;1986;52.546;13.428;2024-02-26T07:46:24;1.80;;;1.80;;
3943;SDS011;1986;52.546;13.428;2024-02-26T07:48:51;1.90;;;1.90;;
3943;SDS011;1986;52.546;13.428;2024-02-26T07:51:19;1.70;;;1.70;;
3943;SDS011;1986;52.546;13.428;2024-02-26T07:53:47;1.97;;;1.97;;
3943;SDS011;1986;52.546;13.428;2024-02-26T07:56:14;2.20;;;2.20;;
3943;SDS011;1986;52.546;13.428;2024-02-26T07:58:41;2.13;;;2.13;;
3943;SDS011;1986;52.546;13.428;2024-02-26T08:01:08;2.33;;;2.33;;
3943;SDS011;1986;52.546;13.428;2024-02-26T08:03:38;1.90;;;1.90;;
3943;SDS011;1986;52.546;13.428;2024-02-26T08:06:05;2.10;;;2.10;;
3943;SDS011;1986;52.546;13.428;2024-02-26T08:08:34;2.50;;;2.50;;
3943;SDS011;1986;52.546;13.428;2024-02-26T08:11:02;2.83;;;2.83;;
3943;SDS011;1986;52.546;13.428;2024-02-26T08:13:38;2.60;;;2.60;;
3943;SDS011;1986;52.546;13.428;2024-02-26T08:16:05;2.70;;;2.70;;
3943;SDS011;1986;52.546;13.428;2024-02-26T08:18:33;2.80;;;2.80;;
3943;SDS011;1986;52.546;13.428;2024-02-26T08:21:01;2.90;;;2.90;;
3943;SDS011;1986;52.546;13.428;2024-02-26T08:23:29;3.20;;;3.20;;
3943;SDS011;1986;52.546;13.428;2024-02-26T08:25:56;3.30;;;3.30;;
3943;SDS011;1986;52.546;13.428;2024-02-26T08:28:24;3.93;;;3.93;;
3943;SDS011;1986;52.546;13.428;2024-02-26T08:30:51;3.30;;;3.30;;
3943;SDS011;1986;52.546;13.428;2024-02-26T08:33:18;3.60;;;3.60;;
3943;SDS011;1986;52.546;13.428;2024-02-26T08:35:48;4.03;;;4.03;;
3943;SDS011;1986;52.546;13.428;2024-02-26T08:38:16;4.93;;;4.93;;
3943;SDS011;1986;52.546;13.428;2024-02-26T08:40:43;5.20;;;5.20;;
3943;SDS011;1986;52.546;13.428;2024-02-26T08:43:11;6.07;;;6.07;;
3943;SDS011;1986;52.546;13.428;2024-02-26T08:45:40;5.70;;;5.70;;
3943;SDS011;1986;52.546;13.428;2024-02-26T08:48:07;5.80;;;5.80;;
3943;SDS011;1986;52.546;13.428;2024-02-26T08:50:36;6.20;;;6.20;;
3943;SDS011;1986;52.546;13.428;2024-02-26T08:53:03;6.63;;;6.63;;
3943;SDS011;1986;52.546;13.428;2024-02-26T08:55:35;6.73;;;6.73;;
3943;SDS011;1986;52.546;13.428;2024-02-26T08:58:02;6.90;;;6.90;;
3943;SDS011;1986;52.546;13.428;2024-02-26T09:00:29;6.90;;;6.90;;
3943;SDS011;1986;52.546;13.428;2024-02-26T09:02:57;7.10;;;7.10;;
3943;SDS011;1986;52.546;13.428;2024-02-26T09:05:24;7.60;;;7.60;;
3943;SDS011;1986;52.546;13.428;2024-02-26T09:07:52;8.60;;;8.50;;
3943;SDS011;1986;52.546;13.428;2024-02-26T09:10:20;9.20;;;9.10;;
3943;SDS011;1986;52.546;13.428;2024-02-26T09:12:55;9.00;;;8.90;;
3943;SDS011;1986;52.546;13.428;2024-02-26T09:15:25;9.10;;;9.00;;
3943;SDS011;1986;52.546;13.428;2024-02-26T09:17:52;9.60;;;9.50;;
3943;SDS011;1986;52.546;13.428;2024-02-26T09:20:21;9.80;;;9.70;;
3943;SDS011;1986;52.546;13.428;2024-02-26T09:22:50;10.40;;;10.30;;
3943;SDS011;1986;52.546;13.428;2024-02-26T09:25:20;10.87;;;10.77;;
3943;SDS011;1986;52.546;13.428;2024-02-26T09:27:48;10.60;;;10.50;;
3943;SDS011;1986;52.546;13.428;2024-02-26T09:30:20;10.70;;;10.60;;
3943;SDS011;1986;52.546;13.428;2024-02-26T09:32:49;10.73;;;10.63;;
3943;SDS011;1986;52.546;13.428;2024-02-26T09:35:19;11.20;;;11.10;;
3943;SDS011;1986;52.546;13.428;2024-02-26T09:37:48;11.30;;;11.20;;
3943;SDS011;1986;52.546;13.428;2024-02-26T09:40:18;10.90;;;10.80;;
3943;SDS011;1986;52.546;13.428;2024-02-26T09:42:47;11.70;;;11.60;;
3943;SDS011;1986;52.546;13.428;2024-02-26T09:45:22;11.73;;;11.63;;
3943;SDS011;1986;52.546;13.428;2024-02-26T09:47:52;12.40;;;12.20;;
3943;SDS011;1986;52.546;13.428;2024-02-26T09:50:22;12.27;;;12.07;;
3943;SDS011;1986;52.546;13.428;2024-02-26T09:52:52;12.20;;;12.00;;
3943;SDS011;1986;52.546;13.428;2024-02-26T09:55:27;12.63;;;12.43;;
3943;SDS011;1986;52.546;13.428;2024-02-26T09:57:55;13.03;;;12.83;;
3943;SDS011;1986;52.546;13.428;2024-02-26T10:00:25;13.00;;;12.80;;
3943;SDS011;1986;52.546;13.428;2024-02-26T10:02:59;13.27;;;13.07;;
3943;SDS011;1986;52.546;13.428;2024-02-26T10:05:34;13.30;;;13.10;;
3943;SDS011;1986;52.546;13.428;2024-02-26T10:08:05;13.57;;;13.27;;
3943;SDS011;1986;52.546;13.428;2024-02-26T10:10:34;13.60;;;13.30;;
3943;SDS011;1986;52.546;13.428;2024-02-26T10:13:12;13.77;;;13.47;;
3943;SDS011;1986;52.546;13.428;2024-02-26T10:15:41;13.50;;;13.20;;
3943;SDS011;1986;52.546;13.428;2024-02-26T10:18:09;13.80;;;13.50;;
3943;SDS011;1986;52.546;13.428;2024-02-26T10:20:36;14.00;;;13.70;;
3943;SDS011;1986;52.546;13.428;2024-02-26T10:23:03;13.90;;;13.60;;
3943;SDS011;1986;52.546;13.428;2024-02-26T10:25:31;14.80;;;14.40;;
3943;SDS011;1986;52.546;13.428;2024-02-26T10:27:59;14.80;;;14.40;;
3943;SDS011;1986;52.546;13.428;2024-02-26T10:30:30;14.97;;;14.57;;
3943;SDS011;1986;52.546;13.428;2024-02-26T10:33:04;14.70;;;14.30;;
3943;SDS011;1986;52.546;13.428;2024-02-26T10:35:34;15.40;;;14.90;;
3943;SDS011;1986;52.546;13.428;2024-02-26T10:38:15;15.20;;;14.80;;
3943;SDS011;1986;52.546;13.428;2024-02-26T10:40:45;15.43;;;14.93;;
3943;SDS011;1986;52.546;13.428;2024-02-26T10:43:17;15.80;;;15.30;;
3943;SDS011;1986;52.546;13.428;2024-02-26T10:45:46;15.87;;;15.37;;
3943;SDS011;1986;52.546;13.428;2024-02-26T10:48:15;15.90;;;15.40;;
3943;SDS011;1986;52.546;13.428;2024-02-26T10:50:42;16.60;;;16.00;;
3943;SDS011;1986;52.546;13.428;2024-02-26T10:53:12;16.43;;;15.83;;
3943;SDS011;1986;52.546;13.428;2024-02-26T10:55:42;15.90;;;15.40;;
3943;SDS011;1986;52.546;13.428;2024-02-26T10:58:25;15.80;;;15.30;;
3943;SDS011;1986;52.546;13.428;2024-02-26T11:00:55;15.73;;;15.23;;
3943;SDS011;1986;52.546;13.428;2024-02-26T11:03:40;15.80;;;15.30;;
3943;SDS011;1986;52.546;13.428;2024-02-26T11:06:09;15.83;;;15.33;;
3943;SDS011;1986;52.546;13.428;2024-02-26T11:08:39;16.30;;;15.70;;
3943;SDS011;1986;52.546;13.428;2024-02-26T11:11:07;16.00;;;15.40;;
3943;SDS011;1986;52.546;13.428;2024-02-26T11:13:51;16.70;;;16.10;;
3943;SDS011;1986;52.546;13.428;2024-02-26T11:16:35;16.20;;;15.60;;
3943;SDS011;1986;52.546;13.428;2024-02-26T11:19:18;15.67;;;15.17;;
3943;SDS011;1986;52.546;13.428;2024-02-26T11:21:46;15.60;;;15.10;;
3943;SDS011;1986;52.546;13.428;2024-02-26T11:24:15;15.80;;;15.30;;
3943;SDS011;1986;52.546;13.428;2024-02-26T11:26:45;16.13;;;15.57;;
3943;SDS011;1986;52.546;13.428;2024-02-26T11:29:32;15.80;;;15.20;;
3943;SDS011;1986;52.546;13.428;2024-02-26T11:32:25;16.60;;;16.00;;
3943;SDS011;1986;52.546;13.428;2024-02-26T11:35:15;15.30;;;14.80;;
3943;SDS011;1986;52.546;13.428;2024-02-26T11:38:00;16.00;;;15.40;;
3943;SDS011;1986;52.546;13.428;2024-02-26T11:40:33;15.97;;;15.47;;
3943;SDS011;1986;52.546;13.428;2024-02-26T11:43:07;16.50;;;15.90;;
3943;SDS011;1986;52.546;13.428;2024-02-26T11:45:49;16.60;;;16.00;;
3943;SDS011;1986;52.546;13.428;2024-02-26T11:48:24;16.40;;;15.70;;
3943;SDS011;1986;52.546;13.428;2024-02-26T11:54:09;16.47;;;15.87;;
3943;SDS011;1986;52.546;13.428;2024-02-26T11:56:40;16.63;;;16.03;;
3943;SDS011;1986;52.546;13.428;2024-02-26T11:59:10;16.20;;;15.60;;
3943;SDS011;1986;52.546;13.428;2024-02-26T12:01:41;16.30;;;15.60;;
3943;SDS011;1986;52.546;13.428;2024-02-26T12:04:18;16.70;;;16.00;;
3943;SDS011;1986;52.546;13.428;2024-02-26T12:06:53;16.67;;;16.07;;
3943;SDS011;1986;52.546;13.428;2024-02-26T12:09:36;17.00;;;16.40;;
3943;SDS011;1986;52.546;13.428;2024-02-26T12:12:27;16.90;;;16.30;;
3943;SDS011;1986;52.546;13.428;2024-02-26T12:14:55;18.80;;;18.10;;
3943;SDS011;1986;52.546;13.428;2024-02-26T12:17:22;17.10;;;16.50;;
3943;SDS011;1986;52.546;13.428;2024-02-26T12:20:08;17.27;;;16.57;;
3943;SDS011;1986;52.546;13.428;2024-02-26T12:22:50;17.60;;;16.90;;
3943;SDS011;1986;52.546;13.428;2024-02-26T12:25:29;18.30;;;17.60;;
3943;SDS011;1986;52.546;13.428;2024-02-26T12:28:15;16.80;;;16.20;;
3943;SDS011;1986;52.546;13.428;2024-02-26T12:30:56;16.90;;;16.30;;
3943;SDS011;1986;52.546;13.428;2024-02-26T12:33:25;17.10;;;16.50;;
3943;SDS011;1986;52.546;13.428;2024-02-26T12:35:56;17.10;;;16.50;;
3943;SDS011;1986;52.546;13.428;2024-02-26T12:38:33;17.10;;;16.40;;
3943;SDS011;1986;52.546;13.428;2024-02-26T12:41:02;17.20;;;16.50;;
3943;SDS011;1986;52.546;13.428;2024-02-26T12:43:31;17.60;;;16.90;;
3943;SDS011;1986;52.546;13.428;2024-02-26T12:46:14;18.40;;;17.60;;
3943;SDS011;1986;52.546;13.428;2024-02-26T12:48:42;18.33;;;17.53;;
3943;SDS011;1986;52.546;13.428;2024-02-26T12:51:10;18.50;;;17.70;;
3943;SDS011;1986;52.546;13.428;2024-02-26T12:53:50;19.07;;;18.27;;
3943;SDS011;1986;52.546;13.428;2024-02-26T12:56:23;19.70;;;18.70;;
3943;SDS011;1986;52.546;13.428;2024-02-26T12:58:58;19.60;;;18.70;;
3943;SDS011;1986;52.546;13.428;2024-02-26T13:01:29;19.70;;;18.80;;
3943;SDS011;1986;52.546;13.428;2024-02-26T13:04:01;19.57;;;18.67;;
3943;SDS011;1986;52.546;13.428;2024-02-26T13:06:33;19.47;;;18.47;;
3943;SDS011;1986;52.546;13.428;2024-02-26T13:09:31;19.70;;;18.70;;
3943;SDS011;1986;52.546;13.428;2024-02-26T13:12:03;19.93;;;18.93;;
3943;SDS011;1986;52.546;13.428;2024-02-26T13:14:35;20.37;;;19.37;;
3943;SDS011;1986;52.546;13.428;2024-02-26T13:17:08;20.00;;;19.00;;
3943;SDS011;1986;52.546;13.428;2024-02-26T13:19:48;20.30;;;19.40;;
3943;SDS011;1986;52.546;13.428;2024-02-26T13:22:32;20.23;;;19.23;;
3943;SDS011;1986;52.546;13.428;2024-02-26T13:25:04;20.60;;;19.60;;
3943;SDS011;1986;52.546;13.428;2024-02-26T13:27:33;20.40;;;19.50;;
3943;SDS011;1986;52.546;13.428;2024-02-26T13:30:16;22.30;;;21.20;;
3943;SDS011;1986;52.546;13.428;2024-02-26T13:32:48;21.27;;;20.27;;
3943;SDS011;1986;52.546;13.428;2024-02-26T13:35:30;21.70;;;20.60;;
3943;SDS011;1986;52.546;13.428;2024-02-26T13:38:22;21.33;;;20.23;;
3943;SDS011;1986;52.546;13.428;2024-02-26T13:41:01;21.50;;;20.40;;
3943;SDS011;1986;52.546;13.428;2024-02-26T13:43:44;21.53;;;20.43;;
3943;SDS011;1986;52.546;13.428;2024-02-26T13:46:22;22.20;;;21.10;;
3943;SDS011;1986;52.546;13.428;2024-02-26T13:48:56;21.30;;;20.20;;
3943;SDS011;1986;52.546;13.428;2024-02-26T13:51:47;21.73;;;20.73;;
3943;SDS011;1986;52.546;13.428;2024-02-26T13:54:16;22.07;;;20.87;;
3943;SDS011;1986;52.546;13.428;2024-02-26T13:56:45;21.70;;;20.60;;
3943;SDS011;1986;52.546;13.428;2024-02-26T13:59:17;22.13;;;20.93;;
3943;SDS011;1986;52.546;13.428;2024-02-26T14:02:11;21.50;;;20.50;;
3943;SDS011;1986;52.546;13.428;2024-02-26T14:05:03;21.43;;;20.43;;
3943;SDS011;1986;52.546;13.428;2024-02-26T14:07:47;22.00;;;20.90;;
3943;SDS011;1986;52.546;13.428;2024-02-26T14:10:16;22.20;;;21.10;;
3943;SDS011;1986;52.546;13.428;2024-02-26T14:18:48;21.40;;;20.30;;
3943;SDS011;1986;52.546;13.428;2024-02-26T14:21:31;21.87;;;20.77;;
3943;SDS011;1986;52.546;13.428;2024-02-26T14:23:59;21.50;;;20.40;;
3943;SDS011;1986;52.546;13.428;2024-02-26T14:29:02;21.80;;;20.70;;
3943;SDS011;1986;52.546;13.428;2024-02-26T14:31:46;21.43;;;20.33;;
3943;SDS011;1986;52.546;13.428;2024-02-26T14:34:15;21.60;;;20.50;;
3943;SDS011;1986;52.546;13.428;2024-02-26T14:37:00;21.30;;;20.20;;
3943;SDS011;1986;52.546;13.428;2024-02-26T14:39:45;21.07;;;20.00;;
3943;SDS011;1986;52.546;13.428;2024-02-26T14:42:17;21.40;;;20.30;;
3943;SDS011;1986;52.546;13.428;2024-02-26T14:44:49;21.17;;;20.17;;
3943;SDS011;1986;52.546;13.428;2024-02-26T14:50:16;21.50;;;20.40;;
3943;SDS011;1986;52.546;13.428;2024-02-26T14:52:58;21.27;;;20.23;;
3943;SDS011;1986;52.546;13.428;2024-02-26T14:55:28;21.50;;;20.50;;
3943;SDS011;1986;52.546;13.428;2024-02-26T14:57:56;21.57;;;20.57;;
3943;SDS011;1986;52.546;13.428;2024-02-26T15:00:38;21.37;;;20.27;;
3943;SDS011;1986;52.546;13.428;2024-02-26T15:03:28;21.80;;;20.70;;
3943;SDS011;1986;52.546;13.428;2024-02-26T15:05:57;21.50;;;20.50;;
3943;SDS011;1986;52.546;13.428;2024-02-26T15:08:29;21.40;;;20.40;;
3943;SDS011;1986;52.546;13.428;2024-02-26T15:10:58;21.50;;;20.50;;
3943;SDS011;1986;52.546;13.428;2024-02-26T15:13:28;22.00;;;21.00;;
3943;SDS011;1986;52.546;13.428;2024-02-26T15:15:56;20.90;;;19.90;;
3943;SDS011;1986;52.546;13.428;2024-02-26T15:18:30;21.50;;;20.50;;
3943;SDS011;1986;52.546;13.428;2024-02-26T15:21:12;21.20;;;20.20;;
3943;SDS011;1986;52.546;13.428;2024-02-26T15:23:42;21.40;;;20.40;;
3943;SDS011;1986;52.546;13.428;2024-02-26T15:26:15;21.50;;;20.50;;